Pagrindinis puslapis
METAR-TAF:

METAR-TAF

Oro uostai :

Kalskag, Aliaska, Jungtinės Amerikos Valstijos

platuma: 61-32-11N, ilguma: 160-20-29W, Aukštis: 17 m

Dabartinis oras

Ataskaita buvo paskelbta 15 minutes, ne 04:56 UTC
Vėjas 4 kt iš Vakarų/Šiaurės Vakarų
Temperatūra 6°C
Drėgmė 70%
Slėgis 999 hPa
Matomumas: 16.1 km
Giedras dangus

METAR: PALG 210456Z AUTO 30004KT 10SM CLR 06/01 A2951 RMK AO2 SLP996 T00560006

Laikas: 21:11 (05:11 UTC)


TAF: trūkstamas

Orai ataskaitas ir orų prognozės (METAR, TAF).

turimą stotys yra geltonos ir raudonos taškus žemėlapyje.

Perkelti pele per norėdami pamatyti stoties vardą.

Tada spustelėkite, norėdami matyti oro stebėjimo ir prognozės.

Norėdami pakeisti žemėlapį: spustelėkite ant žalios mygtukų su juodo kryžiaus žemyn,; žalią mygtuką su brūkšneliu, jei norite nutolinti; arba žalių rodyklių gretimoms žemėlapius.


METAR-TAF: